Time;durP1;ratioP1;P1;durP2;ratioP2;P2;SDS_P1;SDS_P2;PMS_P1;PMS_P2;Temp;Humidity;BMP_temperature;BMP_pressure;BME280_temperature;BME280_humidity;BME280_pressure;Samples;Min_cycle;Max_cycle;Signal;HPM_P1;HPM_P2
2021/12/09 00:01:36;;;;;;;22.50;7.97;;;;;;;;;;5072367;28;20550;-78
2021/12/09 00:04:03;;;;;;;16.77;7.80;;;;;;;;;;5072570;28;20421;-77
2021/12/09 00:06:31;;;;;;;18.97;8.07;;;;;;;;;;5072532;28;20455;-77
2021/12/09 00:09:04;;;;;;;21.90;8.00;;;5.60;1.00;;;;;;5072499;28;20417;-78
2021/12/09 00:11:30;;;;;;;17.10;7.83;;;;;;;;;;5073123;28;20812;-77
2021/12/09 00:13:56;;;;;;;18.93;7.80;;;;;;;;;;5072574;28;20904;-77
2021/12/09 00:16:22;;;;;;;25.43;8.03;;;;;;;;;;5072110;28;20405;-77
2021/12/09 00:18:48;;;;;;;11.07;6.70;;;;;;;;;;5086501;28;20507;-77
2021/12/09 00:21:14;;;;;;;17.63;6.67;;;;;;;;;;5072432;28;20449;-77
2021/12/09 00:23:41;;;;;;;18.47;7.07;;;;;;;;;;5072388;28;20418;-77
2021/12/09 00:26:07;;;;;;;21.97;7.63;;;;;;;;;;5072688;28;20397;-76
2021/12/09 00:28:33;;;;;;;20.23;7.20;;;;;;;;;;5080303;28;20408;-76
2021/12/09 00:30:59;;;;;;;16.43;7.53;;;;;;;;;;5072654;28;21002;-76
2021/12/09 00:33:25;;;;;;;30.67;8.47;;;;;;;;;;5073719;28;20421;-76
2021/12/09 00:35:56;;;;;;;22.33;7.83;;;;;;;;;;5078883;28;20755;-76
2021/12/09 00:38:40;;;;;;;22.97;8.03;;;;;;;;;;5079287;28;20563;-76
2021/12/09 00:41:12;;;;;;;15.95;7.32;;;;;;;;;;5076465;28;20456;-75
2021/12/09 00:43:39;;;;;;;14.33;6.40;;;5.40;1.00;;;;;;5080227;28;20187;-76
2021/12/09 00:46:07;;;;;;;14.63;7.03;;;;;;;;;;5084169;28;20420;-76
2021/12/09 00:48:33;;;;;;;15.33;7.17;;;;;;;;;;5074383;28;20465;-76
2021/12/09 00:51:00;;;;;;;14.27;7.13;;;;;;;;;;5083459;28;20767;-76
2021/12/09 00:53:26;;;;;;;20.50;6.20;;;;;;;;;;5077461;28;20416;-76
2021/12/09 00:55:52;;;;;;;17.37;7.10;;;;;;;;;;5087623;28;20918;-77
2021/12/09 00:58:21;;;;;;;18.88;7.75;;;;;;;;;;5080228;28;20414;-78
2021/12/09 01:00:51;;;;;;;15.30;7.43;;;;;;;;;;5076654;28;20193;-77
2021/12/09 01:03:21;;;;;;;12.60;6.13;;;;;;;;;;5078902;28;20301;-78
2021/12/09 01:05:51;;;;;;;19.93;7.40;;;;;;;;;;5076527;28;20489;-78
2021/12/09 01:08:18;;;;;;;23.10;8.15;;;;;;;;;;5082888;28;20404;-78
2021/12/09 01:10:44;;;;;;;14.77;5.70;;;;;;;;;;5080370;28;20171;-78
2021/12/09 01:13:15;;;;;;;14.13;6.53;;;;;;;;;;5081629;28;20182;-77
2021/12/09 01:15:51;;;;;;;14.70;7.25;;;;;;;;;;5082079;28;20711;-77
2021/12/09 01:18:21;;;;;;;19.07;5.77;;;;;;;;;;5076325;28;20213;-78
2021/12/09 01:20:47;;;;;;;11.77;6.50;;;;;;;;;;5091589;28;20451;-77
2021/12/09 01:23:15;;;;;;;21.30;7.27;;;;;;;;;;5088297;28;20459;-77
2021/12/09 01:25:43;;;;;;;12.40;6.85;;;;;;;;;;5096572;28;20403;-77
2021/12/09 01:28:24;;;;;;;16.63;7.53;;;;;;;;;;5086636;28;20171;-78
2021/12/09 01:30:51;;;;;;;14.68;7.10;;;;;;;;;;5081706;28;20193;-78
2021/12/09 01:33:28;;;;;;;16.90;8.00;;;;;;;;;;5087499;28;20181;-78
2021/12/09 01:35:54;;;;;;;18.33;7.97;;;;;;;;;;5075880;28;20178;-77
2021/12/09 01:38:22;;;;;;;22.80;7.60;;;;;;;;;;5076399;28;20238;-77
2021/12/09 01:40:48;;;;;;;12.60;5.97;;;;;;;;;;5088568;28;20282;-78
2021/12/09 01:43:14;;;;;;;19.55;6.90;;;;;;;;;;5084199;28;20185;-76
2021/12/09 01:45:41;;;;;;;27.10;9.50;;;;;;;;;;5093996;28;20360;-76
2021/12/09 01:48:07;;;;;;;18.23;6.85;;;;;;;;;;5087068;28;20194;-76
2021/12/09 01:50:34;;;;;;;28.77;7.68;;;;;;;;;;5076300;28;20261;-76
2021/12/09 01:53:01;;;;;;;23.45;8.65;;;;;;;;;;5074955;28;20175;-76
2021/12/09 01:55:34;;;;;;;17.35;7.63;;;;;;;;;;5083369;28;20686;-76
2021/12/09 01:58:03;;;;;;;20.60;7.53;;;;;;;;;;5082368;28;20736;-77
2021/12/09 02:00:45;;;;;;;14.23;7.28;;;;;;;;;;5084217;28;20202;-78
2021/12/09 02:03:15;;;;;;;18.13;6.17;;;;;;;;;;5088879;28;20642;-77
2021/12/09 02:05:46;;;;;;;14.55;5.53;;;;;;;;;;5075488;28;20394;-78
2021/12/09 02:08:16;;;;;;;18.50;7.05;;;;;;;;;;5081264;28;20680;-77
2021/12/09 02:10:45;;;;;;;12.77;6.95;;;;;;;;;;5081443;28;20223;-77
2021/12/09 02:13:16;;;;;;;11.02;6.25;;;;;;;;;;5082629;28;20166;-77
2021/12/09 02:15:45;;;;;;;17.80;6.30;;;;;;;;;;5081826;28;20199;-78
2021/12/09 02:18:15;;;;;;;16.45;5.68;;;;;;;;;;5087702;28;20630;-77
2021/12/09 02:20:42;;;;;;;14.82;7.30;;;;;;;;;;5087053;28;20208;-77
2021/12/09 02:23:12;;;;;;;10.40;5.15;;;;;;;;;;5083334;28;20164;-77
2021/12/09 02:25:40;;;;;;;19.67;8.05;;;;;;;;;;5080001;28;20171;-78
2021/12/09 02:28:06;;;;;;;15.00;6.80;;;;;;;;;;5075427;28;20201;-77
2021/12/09 02:30:32;;;;;;;12.25;5.43;;;;;;;;;;5074067;28;20524;-78
2021/12/09 02:32:58;;;;;;;9.77;4.57;;;;;;;;;;5074815;28;20202;-77
2021/12/09 02:35:27;;;;;;;14.80;6.75;;;;;;;;;;5078091;28;20186;-78
2021/12/09 02:37:53;;;;;;;9.15;5.57;;;;;;;;;;5085952;28;20602;-78
2021/12/09 02:40:19;;;;;;;8.30;4.18;;;;;;;;;;5081953;28;20181;-77
2021/12/09 02:42:47;;;;;;;15.65;6.72;;;;;;;;;;5079486;28;20170;-76
2021/12/09 02:45:13;;;;;;;20.88;6.80;;;;;;;;;;5085060;28;20171;-76
2021/12/09 02:47:39;;;;;;;17.42;6.38;;;;;;;;;;5083750;28;20684;-76
2021/12/09 02:50:07;;;;;;;24.55;8.52;;;;;;;;;;5086912;28;20229;-76
2021/12/09 02:52:33;;;;;;;18.95;5.88;;;;;;;;;;5078187;28;20503;-75
2021/12/09 02:54:59;;;;;;;13.30;5.90;;;;;;;;;;5080733;28;20167;-75
2021/12/09 02:57:25;;;;;;;15.45;5.45;;;;;;;;;;5082654;28;20266;-76
2021/12/09 02:59:51;;;;;;;21.75;6.57;;;;;;;;;;5074167;28;20174;-76
2021/12/09 03:02:19;;;;;;;13.43;5.68;;;;;;;;;;5073923;28;20202;-75
2021/12/09 03:04:47;;;;;;;14.50;5.35;;;;;;;;;;5073876;28;20178;-76
2021/12/09 03:07:23;;;;;;;14.02;4.88;;;;;;;;;;5072497;28;20232;-76
2021/12/09 03:09:51;;;;;;;8.85;4.90;;;;;;;;;;5078725;28;20270;-75
2021/12/09 03:12:24;;;;;;;27.45;10.15;;;;;;;;;;5085992;28;20324;-77
2021/12/09 03:14:50;;;;;;;14.90;6.43;;;;;;;;;;5074237;28;20186;-77
2021/12/09 03:17:17;;;;;;;24.17;9.57;;;;;;;;;;5078358;28;20174;-78
2021/12/09 03:19:46;;;;;;;17.52;9.48;;;;;;;;;;5081080;28;20614;-77
2021/12/09 03:22:13;;;;;;;12.55;5.80;;;;;;;;;;5082068;28;20198;-77
2021/12/09 03:24:39;;;;;;;13.15;4.57;;;;;;;;;;5074014;28;20170;-77
2021/12/09 03:27:06;;;;;;;19.80;9.30;;;;;;;;;;5088522;28;20174;-77
2021/12/09 03:29:34;;;;;;;22.55;10.13;;;;;;;;;;5088637;28;20203;-77
2021/12/09 03:32:02;;;;;;;21.63;5.85;;;;;;;;;;5086710;28;20197;-77
2021/12/09 03:34:46;;;;;;;22.52;5.95;;;;;;;;;;5073807;28;20163;-78
2021/12/09 03:37:20;;;;;;;22.98;9.65;;;;;;;;;;5087370;28;20280;-79
2021/12/09 03:39:47;;;;;;;34.30;10.00;;;;;;;;;;5078679;28;20220;-77
2021/12/09 03:42:15;;;;;;;19.95;9.68;;;;;;;;;;5082565;28;20206;-76
2021/12/09 03:44:46;;;;;;;20.35;8.88;;;;;;;;;;5074125;28;20163;-77
2021/12/09 03:47:16;;;;;;;29.00;10.13;;;;;;;;;;5079808;28;20162;-77
2021/12/09 03:49:43;;;;;;;19.00;9.65;;;;;;;;;;5088163;28;20195;-78
2021/12/09 03:52:10;;;;;;;28.33;10.93;;;;;;;;;;5087146;28;20477;-77
2021/12/09 03:54:40;;;;;;;22.42;9.75;;;;;;;;;;5079633;28;20246;-77
2021/12/09 03:57:07;;;;;;;15.60;8.85;;;;;;;;;;5080163;28;20224;-77
2021/12/09 03:59:34;;;;;;;24.27;8.93;;;;;;;;;;5084681;28;20162;-76
2021/12/09 04:02:00;;;;;;;31.13;10.20;;;;;;;;;;5073193;28;20206;-76
2021/12/09 04:04:26;;;;;;;26.00;8.85;;;;;;;;;;5073592;28;20182;-75
2021/12/09 04:06:53;;;;;;;21.95;9.40;;;;;;;;;;5073205;28;20175;-76
2021/12/09 04:09:22;;;;;;;29.23;10.48;;;;;;;;;;5074098;28;20257;-76
2021/12/09 04:11:48;;;;;;;26.67;10.02;;;;;;;;;;5082019;28;20189;-76
2021/12/09 04:14:14;;;;;;;21.15;8.55;;;;;;;;;;5089347;28;20257;-76
2021/12/09 04:16:40;;;;;;;16.85;6.30;;;;;;;;;;5077874;28;20190;-76
2021/12/09 04:19:07;;;;;;;24.98;8.70;;;;;;;;;;5085698;28;20167;-76
2021/12/09 04:21:34;;;;;;;26.88;8.13;;;;;;;;;;5082256;28;20224;-76
2021/12/09 04:24:07;;;;;;;11.45;4.57;;;;;;;;;;5084784;28;20166;-76
2021/12/09 04:26:33;;;;;;;15.73;5.13;;;;;;;;;;5072998;28;20175;-76
2021/12/09 04:29:00;;;;;;;17.77;7.30;;;;;;;;;;5074928;28;20171;-76
2021/12/09 04:31:27;;;;;;;18.08;7.90;;;;;;;;;;5096830;28;20641;-76
2021/12/09 04:33:53;;;;;;;21.02;9.05;;;;;;;;;;5083693;28;20177;-76
2021/12/09 04:36:21;;;;;;;14.63;7.18;;;;;;;;;;5086185;28;20533;-76
2021/12/09 04:38:48;;;;;;;15.95;7.75;;;;;;;;;;5076561;28;20638;-76
2021/12/09 04:41:15;;;;;;;18.65;8.20;;;;;;;;;;5082250;28;20202;-76
2021/12/09 04:43:42;;;;;;;18.90;8.77;;;;;;;;;;5086200;28;20177;-76
2021/12/09 04:46:09;;;;;;;16.77;7.75;;;;;;;;;;5076997;28;20539;-75
2021/12/09 04:48:35;;;;;;;18.85;7.85;;;;;;;;;;5079427;28;20175;-76
2021/12/09 04:51:01;;;;;;;17.50;8.02;;;;;;;;;;5077610;28;20210;-76
2021/12/09 04:53:27;;;;;;;15.43;5.90;;;;;;;;;;5075818;28;20213;-76
2021/12/09 04:55:57;;;;;;;16.58;6.68;;;;;;;;;;5076489;28;20183;-76
2021/12/09 04:58:28;;;;;;;6.75;4.13;;;;;;;;;;5076770;28;20318;-77
2021/12/09 05:00:55;;;;;;;4.68;2.72;;;;;;;;;;5085138;28;20194;-77
2021/12/09 05:03:22;;;;;;;13.25;4.22;;;;;;;;;;5096793;28;20256;-77
2021/12/09 05:05:51;;;;;;;8.32;3.40;;;;;;;;;;5082183;28;20179;-78
2021/12/09 05:08:23;;;;;;;10.90;4.28;;;;;;;;;;5076297;28;20653;-77
2021/12/09 05:13:32;;;;;;;12.10;3.70;;;;;;;;;;5079608;28;20179;-77
2021/12/09 05:15:59;;;;;;;6.32;3.42;;;;;;;;;;5083765;28;20175;-77
2021/12/09 05:18:28;;;;;;;9.43;3.70;;;;;;;;;;5077509;28;20175;-77
2021/12/09 05:20:57;;;;;;;13.30;3.08;;;;;;;;;;5078202;28;20201;-77
2021/12/09 05:23:24;;;;;;;9.07;3.30;;;;;;;;;;5076335;28;20204;-77
2021/12/09 05:25:57;;;;;;;10.93;4.03;;;;;;;;;;5094651;28;20170;-77
2021/12/09 05:28:33;;;;;;;6.93;3.25;;;;;;;;;;5082497;28;20256;-76
2021/12/09 05:33:44;;;;;;;7.07;3.65;;;;;;;;;;5078879;28;20190;-76
2021/12/09 05:36:10;;;;;;;14.30;4.80;;;;;;;;;;5085818;28;20174;-76
2021/12/09 05:38:39;;;;;;;8.30;3.80;;;;;;;;;;5085811;28;20179;-76
2021/12/09 05:41:05;;;;;;;9.60;3.63;;;;;;;;;;5081445;28;20200;-75
2021/12/09 05:43:40;;;;;;;17.38;4.07;;;;;;;;;;5088349;28;20300;-77
2021/12/09 05:46:09;;;;;;;10.40;4.90;;;;;;;;;;5084838;28;20167;-78
2021/12/09 05:48:36;;;;;;;10.15;4.45;;;;;;;;;;5078532;28;20532;-78
2021/12/09 05:51:02;;;;;;;11.13;4.22;;;;;;;;;;5088558;28;20167;-78
2021/12/09 05:53:39;;;;;;;8.77;3.65;;;;;;;;;;5074091;28;20302;-77
2021/12/09 05:56:06;;;;;;;10.60;4.80;;;;;;;;;;5075467;28;20171;-77
2021/12/09 05:58:33;;;;;;;11.80;3.97;;;;;;;;;;5076705;28;20271;-77
2021/12/09 06:00:59;;;;;;;15.38;5.57;;;;;;;;;;5079429;28;20199;-75
2021/12/09 06:03:25;;;;;;;9.27;4.72;;;;;;;;;;5075261;28;20262;-76
2021/12/09 06:05:52;;;;;;;10.45;4.38;;;;;;;;;;5074875;28;20179;-76
2021/12/09 06:08:19;;;;;;;8.88;4.22;;;;;;;;;;5077616;28;20174;-75
2021/12/09 06:10:46;;;;;;;16.55;4.80;;;;;;;;;;5075006;28;20179;-75
2021/12/09 06:13:12;;;;;;;11.75;4.00;;;;;;;;;;5078656;28;20178;-75
2021/12/09 06:15:39;;;;;;;12.00;4.15;;;;;;;;;;5084374;28;20190;-78
2021/12/09 06:18:06;;;;;;;6.03;3.22;;;;;;;;;;5086315;28;20301;-77
2021/12/09 06:20:33;;;;;;;13.30;4.88;;;;;;;;;;5083428;28;20285;-78
2021/12/09 06:23:15;;;;;;;573.90;63.13;;;;;;;;;;5067234;28;20222;-77
2021/12/09 06:25:44;;;;;;;51.00;7.55;;;;;;;;;;5075410;28;20189;-77
2021/12/09 06:28:10;;;;;;;16.45;6.35;;;;;;;;;;5092739;28;20638;-77
2021/12/09 06:30:36;;;;;;;28.55;7.53;;;;;;;;;;5075612;28;20183;-75
2021/12/09 06:33:05;;;;;;;15.70;6.32;;;;;;;;;;5075283;28;20202;-75
2021/12/09 06:35:33;;;;;;;26.45;7.75;;;;;;;;;;5087681;28;20167;-75
2021/12/09 06:38:00;;;;;;;22.15;7.30;;;;;;;;;;5079922;28;20634;-77
2021/12/09 06:40:27;;;;;;;17.10;6.32;;;;;;;;;;5083694;28;20186;-77
2021/12/09 06:42:54;;;;;;;31.67;8.70;;;;;;;;;;5074514;28;20263;-78
2021/12/09 06:45:22;;;;;;;13.77;6.47;;;;;;;;;;5107511;28;20174;-77
2021/12/09 06:48:04;;;;;;;13.32;6.53;;;;;;;;;;5078040;28;20217;-77
2021/12/09 06:50:30;;;;;;;18.48;7.00;;;;;;;;;;5073375;28;20217;-77
2021/12/09 06:52:56;;;;;;;26.42;6.85;;;;;;;;;;5087349;28;20178;-77
2021/12/09 06:55:23;;;;;;;15.18;6.50;;;;;;;;;;5074684;28;20179;-77
2021/12/09 06:57:50;;;;;;;10.73;5.95;;;;;;;;;;5083346;28;20253;-77
2021/12/09 07:00:23;;;;;;;12.57;5.63;;;;;;;;;;5081256;28;20162;-75
2021/12/09 07:02:50;;;;;;;22.67;7.82;;;;;;;;;;5079504;28;20163;-75
2021/12/09 07:05:17;;;;;;;16.63;6.82;;;;;;;;;;5083680;28;20567;-75
2021/12/09 07:07:43;;;;;;;20.52;7.10;;;;;;;;;;5075044;28;20174;-78
2021/12/09 07:10:10;;;;;;;23.00;7.68;;;;;;;;;;5073671;28;20171;-75
2021/12/09 07:12:37;;;;;;;13.95;6.00;;;;;;;;;;5080535;28;20227;-76
2021/12/09 07:15:04;;;;;;;17.38;5.75;;;;;;;;;;5074140;28;20177;-77
2021/12/09 07:17:30;;;;;;;18.73;6.50;;;;;;;;;;5075789;28;20205;-77
2021/12/09 07:19:56;;;;;;;15.57;6.30;;;;;;;;;;5080226;28;20661;-77
2021/12/09 07:22:22;;;;;;;19.67;6.87;;;;;;;;;;5076395;28;20449;-77
2021/12/09 07:24:48;;;;;;;16.43;6.40;;;;;;;;;;5079882;28;20433;-77
2021/12/09 07:27:14;;;;;;;21.95;7.70;;;;;;;;;;5077675;28;20429;-77
2021/12/09 07:29:40;;;;;;;15.50;6.87;;;;;;;;;;5084533;28;20182;-75
2021/12/09 07:32:06;;;;;;;19.45;6.65;;;;;;;;;;5077073;28;20440;-76
2021/12/09 07:34:32;;;;;;;15.40;6.95;;;;;;;;;;5079206;28;20189;-76
2021/12/09 07:37:04;;;;;;;13.82;6.55;;;;;;;;;;5072758;28;20178;-76
2021/12/09 07:39:30;;;;;;;12.20;6.25;;;;;;;;;;5072939;28;20622;-76
2021/12/09 07:41:56;;;;;;;14.32;6.30;;;;;;;;;;5072229;28;20592;-75
2021/12/09 07:44:23;;;;;;;14.85;6.18;;;;;;;;;;5083193;28;20177;-76
2021/12/09 07:46:51;;;;;;;14.85;6.57;;;;;;;;;;5080510;28;20224;-79
2021/12/09 07:49:18;;;;;;;21.08;7.25;;;;;;;;;;5072551;28;20171;-81
2021/12/09 07:51:44;;;;;;;21.13;6.47;;;;;;;;;;5072664;28;20171;-78
2021/12/09 07:54:10;;;;;;;25.80;6.67;;;;;;;;;;5077053;28;20236;-76
2021/12/09 07:56:36;;;;;;;12.97;5.93;;;;;;;;;;5085329;28;20410;-78
2021/12/09 07:59:03;;;;;;;14.50;6.90;;;;;;;;;;5072822;28;20528;-77
2021/12/09 08:01:29;;;;;;;21.00;6.90;;;;;;;;;;5071622;28;20834;-77
2021/12/09 08:03:55;;;;;;;54.35;8.23;;;;;;;;;;5070400;28;20190;-77
2021/12/09 08:06:21;;;;;;;24.08;8.23;;;;;;;;;;5094922;28;20177;-77
2021/12/09 08:08:47;;;;;;;23.30;7.38;;;;;;;;;;5076597;28;20174;-77
2021/12/09 08:11:13;;;;;;;16.95;5.93;;;;;;;;;;5080094;28;20228;-76
2021/12/09 08:13:40;;;;;;;33.80;8.43;;;;;;;;;;5073626;28;20703;-77
2021/12/09 08:16:06;;;;;;;17.58;6.15;;;;;;;;;;5081040;28;20600;-76
2021/12/09 08:18:43;;;;;;;13.90;6.00;;;;;;;;;;5076387;28;20179;-76
2021/12/09 08:21:09;;;;;;;9.13;5.03;;;;;;;;;;5076118;28;20201;-76
2021/12/09 08:23:35;;;;;;;28.67;8.15;;;;;;;;;;5080433;28;20267;-76
2021/12/09 08:26:01;;;;;;;19.73;5.35;;;;;;;;;;5077667;28;20262;-76
2021/12/09 08:28:27;;;;;;;26.98;5.97;;;;;;;;;;5080584;28;20190;-76
2021/12/09 08:30:53;;;;;;;21.98;6.68;;;;;;;;;;5080314;28;20186;-76
2021/12/09 08:33:23;;;;;;;24.08;7.30;;;;;;;;;;5083272;28;20179;-77
2021/12/09 08:35:50;;;;;;;24.25;7.18;;;;;;;;;;5083583;28;20284;-77
2021/12/09 08:38:16;;;;;;;15.20;3.60;;;;;;;;;;5086790;28;20780;-77
2021/12/09 08:40:43;;;;;;;19.73;5.43;;;;;;;;;;5077187;28;20244;-76
2021/12/09 08:43:09;;;;;;;21.90;7.75;;;;;;;;;;5086748;28;20181;-77
2021/12/09 08:45:35;;;;;;;21.85;7.32;;;;;;;;;;5081376;28;20167;-75
2021/12/09 08:48:01;;;;;;;37.45;7.85;;;;;;;;;;5088233;28;20201;-77
2021/12/09 08:50:33;;;;;;;7.07;2.88;;;;;;;;;;5075424;28;20175;-76
2021/12/09 08:53:00;;;;;;;17.65;6.63;;;;;;;;;;5077859;28;20177;-75
2021/12/09 08:55:26;;;;;;;15.20;6.38;;;;;;;;;;5076840;28;20171;-75
2021/12/09 08:57:52;;;;;;;12.93;5.05;;;;;;;;;;5078929;28;20660;-75
2021/12/09 09:00:19;;;;;;;8.07;3.28;;;;;;;;;;5075597;28;20244;-75
2021/12/09 09:02:46;;;;;;;19.40;7.43;;;;;;;;;;5074067;28;20175;-75
2021/12/09 09:05:13;;;;;;;9.77;3.85;;;;;;;;;;5086085;28;20178;-75
2021/12/09 09:07:40;;;;;;;19.55;6.20;;;;;;;;;;5079506;28;20527;-75
2021/12/09 09:10:06;;;;;;;5.50;2.63;;;;;;;;;;5075390;28;20525;-75
2021/12/09 09:12:33;;;;;;;10.23;3.33;;;;;;;;;;5075062;28;20182;-75
2021/12/09 09:14:59;;;;;;;9.35;3.92;;;;;;;;;;5084512;28;20244;-75
2021/12/09 09:17:25;;;;;;;11.10;4.75;;;;;;;;;;5088389;28;20270;-76
2021/12/09 09:19:52;;;;;;;8.10;4.03;;;;;;;;;;5075169;28;20721;-76
2021/12/09 09:22:18;;;;;;;9.88;2.97;;;;;;;;;;5087797;28;20194;-76
2021/12/09 09:24:44;;;;;;;8.50;4.10;;;;;;;;;;5093742;28;20173;-76
2021/12/09 09:27:10;;;;;;;22.30;6.13;;;;;;;;;;5081555;28;20432;-76
2021/12/09 09:29:39;;;;;;;96.78;11.98;;;;;;;;;;5077767;28;20277;-76
2021/12/09 09:32:05;;;;;;;8.38;4.03;;;;;;;;;;5087440;28;20205;-76
2021/12/09 09:34:31;;;;;;;18.88;5.35;;;;;;;;;;5084790;28;20559;-76
2021/12/09 09:36:57;;;;;;;7.50;2.58;;;;;;;;;;5082071;28;20209;-77
2021/12/09 09:39:28;;;;;;;10.87;3.87;;;;;;;;;;5073480;28;20191;-76
2021/12/09 09:42:06;;;;;;;7.15;3.15;;;;;;;;;;5079180;28;20464;-76
2021/12/09 09:44:46;;;;;;;15.35;4.00;;;;;;;;;;5081898;28;20162;-76
2021/12/09 09:47:12;;;;;;;27.13;5.78;;;;;;;;;;5077811;28;20229;-75
2021/12/09 09:49:39;;;;;;;17.35;3.72;;;;;;;;;;5074894;28;20532;-75
2021/12/09 09:52:08;;;;;;;12.45;3.63;;;;;;;;;;5077541;28;20179;-75
2021/12/09 09:54:34;;;;;;;7.97;3.45;;;;;;;;;;5074537;28;20590;-75
2021/12/09 09:57:00;;;;;;;8.10;2.90;;;;;;;;;;5076440;28;20186;-75
2021/12/09 09:59:28;;;;;;;9.07;1.85;;;;;;;;;;5081758;28;20178;-75
2021/12/09 10:01:55;;;;;;;4.35;2.38;;;;;;;;;;5079227;28;20256;-75
2021/12/09 10:04:44;;;;;;;10.15;2.63;;;;;;;;;;5074526;28;20175;-76
2021/12/09 10:07:12;;;;;;;76.40;10.25;;;;;;;;;;5063650;28;20219;-76
2021/12/09 10:09:38;;;;;;;13.50;3.95;;;;;;;;;;5081951;28;20178;-76
2021/12/09 10:12:04;;;;;;;11.07;3.85;;;;;;;;;;5086166;28;20175;-76
2021/12/09 10:14:33;;;;;;;11.43;3.65;;;;;;;;;;5086347;28;20210;-76
2021/12/09 10:17:12;;;;;;;24.10;3.17;;;;;;;;;;5082429;28;20197;-74
2021/12/09 10:19:40;;;;;;;5.43;2.60;;;;;;;;;;5079034;28;20206;-74
2021/12/09 10:22:10;;;;;;;5.80;2.22;;;;;;;;;;5073833;28;20263;-75
2021/12/09 10:24:37;;;;;;;4.65;2.25;;;;;;;;;;5073479;28;20171;-75
2021/12/09 10:27:03;;;;;;;16.30;4.03;;;;;;;;;;5080345;28;20183;-75
2021/12/09 10:29:37;;;;;;;31.27;3.50;;;;;;;;;;5083052;28;20178;-75
2021/12/09 10:32:10;;;;;;;8.38;2.55;;;;;;;;;;5087995;28;20560;-77
2021/12/09 10:34:39;;;;;;;11.88;2.20;;;;;;;;;;5080660;28;20175;-76
2021/12/09 10:37:07;;;;;;;9.57;3.03;;;;;;;;;;5082096;28;20244;-76
2021/12/09 10:39:33;;;;;;;9.60;2.72;;;;;;;;;;5078887;28;20171;-76
2021/12/09 10:42:00;;;;;;;6.70;2.53;;;;;;;;;;5079349;28;20195;-76
2021/12/09 10:44:34;;;;;;;4.80;1.92;;;;;;;;;;5076513;28;20455;-76
2021/12/09 10:47:09;;;;;;;34.50;5.05;;;;;;;;;;5081255;28;20534;-75
2021/12/09 10:49:48;;;;;;;5.40;1.83;;;;;;;;;;5077701;28;20700;-74
2021/12/09 10:52:26;;;;;;;10.30;2.35;;;;;;;;;;5075010;28;20182;-75
2021/12/09 10:54:52;;;;;;;8.55;1.52;;;;;;;;;;5088324;28;20178;-74
2021/12/09 10:57:22;;;;;;;7.75;2.30;;;;;;;;;;5073129;28;20183;-74
2021/12/09 10:59:49;;;;;;;16.35;3.05;;;;;;;;;;5072048;28;20187;-74
2021/12/09 11:02:15;;;;;;;7.88;1.73;;;;;;;;;;5086620;28;20197;-76
2021/12/09 11:04:41;;;;;;;10.67;2.43;;;;;;;;;;5079364;28;20159;-75
2021/12/09 11:07:26;;;;;;;6.82;1.75;;;;;;;;;;5080147;28;20404;-75
2021/12/09 11:10:14;;;;;;;10.90;2.13;;;4.90;1.00;;;;;;5076882;28;20167;-76
2021/12/09 11:12:48;;;;;;;9.30;2.53;;;;;;;;;;5079831;28;20421;-76
2021/12/09 11:15:15;;;;;;;11.37;2.53;;;;;;;;;;5073413;28;20933;-76
2021/12/09 11:17:45;;;;;;;5.33;1.70;;;;;;;;;;5081620;28;20409;-74
2021/12/09 11:20:15;;;;;;;13.43;2.33;;;;;;;;;;5075214;28;20433;-75
2021/12/09 11:22:44;;;;;;;11.48;2.22;;;;;;;;;;5078413;28;21020;-74
2021/12/09 11:25:34;;;;;;;9.17;2.67;;;;;;;;;;5082566;28;20205;-74
2021/12/09 11:28:12;;;;;;;8.25;2.25;;;;;;;;;;5074018;28;20409;-74
2021/12/09 11:31:02;;;;;;;34.20;4.05;;;;;;;;;;5062552;28;20286;-74
2021/12/09 11:33:33;;;;;;;10.10;2.27;;;;;;;;;;5072607;28;20186;-74
2021/12/09 11:36:01;;;;;;;17.73;2.73;;;;;;;;;;5075613;28;20899;-74
2021/12/09 11:38:53;;;;;;;22.23;2.87;;;;;;;;;;5088917;28;20404;-75
2021/12/09 11:41:31;;;;;;;9.10;2.20;;;;;;;;;;5072016;28;20537;-74
2021/12/09 11:43:57;;;;;;;9.67;2.60;;;;;;;;;;5075370;28;20569;-74
2021/12/09 11:46:23;;;;;;;7.23;2.10;;;;;;;;;;5072808;28;20492;-74
2021/12/09 11:48:49;;;;;;;4.23;1.47;;;;;;;;;;5072526;28;20409;-76
2021/12/09 11:51:15;;;;;;;9.20;2.60;;;;;;;;;;5075122;28;20431;-76
2021/12/09 11:53:44;;;;;;;9.23;2.20;;;;;;;;;;5077320;28;20849;-76
2021/12/09 12:06:45;;;;;;;6.97;2.07;;;;;;;;;;5080380;28;20762;-76
2021/12/09 12:13:54;;;;;;;13.90;2.73;;;5.90;1.00;;;;;;5050234;28;20509;-75
2021/12/09 12:16:37;;;;;;;9.53;3.23;;;;;;;;;;5053128;28;20433;-77
2021/12/09 12:19:40;;;;;;;6.37;2.00;;;;;;;;;;5038798;28;20508;-74
2021/12/09 12:22:20;;;;;;;15.27;3.50;;;;;;;;;;5059257;28;20461;-74
2021/12/09 12:25:13;;;;;;;18.60;3.93;;;;;;;;;;5032965;28;20802;-74
2021/12/09 12:27:58;;;;;;;24.73;5.60;;;;;;;;;;5053913;28;20421;-74
2021/12/09 12:37:42;;;;;;;11.20;2.90;;;5.80;1.00;;;;;;5068931;28;20516;-74
2021/12/09 12:42:19;;;;;;;22.33;4.03;;;;;;;;;;5050966;28;20461;-75
2021/12/09 12:45:04;;;;;;;10.07;2.27;;;;;;;;;;5082820;28;20412;-74
2021/12/09 12:47:38;;;;;;;18.50;3.00;;;;;;;;;;5075007;28;20411;-76
2021/12/09 12:50:12;;;;;;;14.47;3.47;;;;;;;;;;5084748;28;20408;-76
2021/12/09 12:52:39;;;;;;;29.47;3.83;;;;;;;;;;5076697;28;20455;-79
2021/12/09 12:55:13;;;;;;;8.55;2.20;;;;;;;;;;5081624;28;20511;-77
2021/12/09 12:57:47;;;;;;;15.63;3.00;;;;;;;;;;5076828;28;20186;-77
2021/12/09 13:00:17;;;;;;;11.40;2.37;;;;;;;;;;5075496;28;20807;-77
2021/12/09 13:08:44;;;;;;;6.17;1.70;;;;;;;;;;5058079;28;20417;-77
2021/12/09 13:11:24;;;;;;;9.30;2.03;;;;;;;;;;5073075;28;21285;-77
2021/12/09 13:21:34;;;;;;;27.77;4.40;;;;;;;;;;5071450;28;21004;-73
2021/12/09 13:24:39;;;;;;;4.90;1.43;;;;;;;;;;5070848;28;20504;-73
2021/12/09 13:27:11;;;;;;;9.10;2.13;;;;;;;;;;5072667;28;20401;-73
2021/12/09 13:30:00;;;;;;;6.17;2.27;;;;;;;;;;5071990;28;20425;-73
2021/12/09 13:32:59;;;;;;;14.10;2.70;;;;;;;;;;5069117;28;20441;-74
2021/12/09 13:35:45;;;;;;;4.73;1.37;;;;;;;;;;5050643;28;20437;-78
2021/12/09 13:46:26;;;;;;;7.67;2.37;;;;;;;;;;5032725;28;20503;-78
2021/12/09 13:49:17;;;;;;;7.70;2.53;;;;;;;;;;5028792;28;20423;-78
2021/12/09 13:54:24;;;;;;;16.20;2.80;;;;;;;;;;5045580;28;20427;-79
2021/12/09 13:56:54;;;;;;;11.17;2.90;;;;;;;;;;5034877;28;20418;-79
2021/12/09 13:59:22;;;;;;;11.07;2.63;;;;;;;;;;5032135;28;20423;-79
2021/12/09 14:01:49;;;;;;;8.70;2.87;;;;;;;;;;5032068;28;20458;-78
2021/12/09 14:04:19;;;;;;;19.67;3.63;;;;;;;;;;5036277;28;20576;-78
2021/12/09 14:06:55;;;;;;;10.87;2.73;;;;;;;;;;5032184;28;20457;-78
2021/12/09 14:09:23;;;;;;;7.23;1.93;;;;;;;;;;5032177;28;20890;-78
2021/12/09 14:11:50;;;;;;;8.60;2.77;;;;;;;;;;5049541;28;20889;-77
2021/12/09 14:14:37;;;;;;;7.23;2.20;;;;;;;;;;5070587;28;20436;-76
2021/12/09 14:17:04;;;;;;;8.43;2.60;;;;;;;;;;5081894;28;20405;-76
2021/12/09 14:21:58;;;;;;;7.20;2.47;;;;;;;;;;5092343;28;20783;-74
2021/12/09 14:24:26;;;;;;;17.93;2.63;;;;;;;;;;5086505;28;20482;-74
2021/12/09 14:26:58;;;;;;;9.20;2.40;;;;;;;;;;5074120;28;20840;-74
2021/12/09 14:29:25;;;;;;;11.33;3.43;;;;;;;;;;5077270;28;20424;-74
2021/12/09 14:31:59;;;;;;;10.20;2.67;;;;;;;;;;5073387;28;20440;-74
2021/12/09 14:34:27;;;;;;;20.10;3.53;;;;;;;;;;5077161;28;20427;-74
2021/12/09 14:36:57;;;;;;;22.87;4.27;;;;;;;;;;5072681;28;20434;-74
2021/12/09 14:39:24;;;;;;;12.57;2.90;;;;;;;;;;5080335;28;20412;-74
2021/12/09 14:42:10;;;;;;;8.60;2.50;;;;;;;;;;5093433;28;20448;-75
2021/12/09 14:44:37;;;;;;;18.20;4.13;;;;;;;;;;5081349;28;20412;-75
2021/12/09 14:47:21;;;;;;;40.67;6.70;;;;;;;;;;5077731;28;20432;-75
2021/12/09 14:49:49;;;;;;;16.87;4.10;;;;;;;;;;5077946;28;20903;-76
2021/12/09 14:52:31;;;;;;;9.53;3.07;;;;;;;;;;5075305;28;20924;-78
2021/12/09 14:55:10;;;;;;;23.43;5.00;;;;;;;;;;5080616;28;20421;-77
2021/12/09 14:57:50;;;;;;;9.83;2.40;;;;;;;;;;5073312;28;20412;-79
2021/12/09 15:00:27;;;;;;;14.53;3.27;;;;;;;;;;5073124;28;20440;-78
2021/12/09 15:02:53;;;;;;;24.27;4.83;;;;;;;;;;5076542;28;20547;-80
2021/12/09 15:05:20;;;;;;;8.33;2.57;;;;;;;;;;5073505;28;20428;-75
2021/12/09 15:07:51;;;;;;;8.23;3.00;;;;;;;;;;5084072;28;20420;-74
2021/12/09 15:10:19;;;;;;;11.30;3.10;;;;;;;;;;5074973;28;20417;-73
2021/12/09 15:12:46;;;;;;;10.60;2.90;;;;;;;;;;5077177;28;20761;-73
2021/12/09 15:15:20;;;;;;;27.17;4.80;;;;;;;;;;5074311;28;20424;-73
2021/12/09 15:17:53;;;;;;;8.40;2.70;;;;;;;;;;5072804;28;20415;-73
2021/12/09 15:20:19;;;;;;;15.77;4.00;;;;;;;;;;5073228;28;20444;-73
2021/12/09 15:22:57;;;;;;;13.00;3.77;;;;;;;;;;5079876;28;20452;-73
2021/12/09 15:25:23;;;;;;;13.53;3.53;;;;;;;;;;5077516;28;20911;-73
2021/12/09 15:28:01;;;;;;;8.60;3.73;;;;;;;;;;5072635;28;20435;-73
2021/12/09 15:30:39;;;;;;;14.30;3.53;;;;;;;;;;5075376;28;20931;-73
2021/12/09 15:33:06;;;;;;;20.77;3.17;;;;;;;;;;5082023;28;20441;-73
2021/12/09 15:35:33;;;;;;;30.93;5.63;;;;;;;;;;5077186;28;20433;-76
2021/12/09 15:38:00;;;;;;;9.27;3.23;;;;;;;;;;5072139;28;20781;-76
2021/12/09 15:40:27;;;;;;;8.30;3.43;;;;;;;;;;5091508;28;20765;-76
2021/12/09 15:42:53;;;;;;;9.10;3.50;;;;;;;;;;5072653;28;20487;-76